Time,TemperatureF,DewpointF,PressureIn,WindDirection,WindDirectionDegrees,WindSpeedMPH,WindSpeedGustMPH,Humidity,HourlyPrecipIn,Conditions,Clouds,dailyrainin,SoftwareType,DateUTC
2013-05-03 00:03:00,37.5,36.0,30.19,North,354,7.0,13.0,94,0.00,,,0.00,weatherlink.com 1.10,2013-05-03 05:03:00,
2013-05-03 00:18:00,37.3,36.0,30.19,ENE,71,13.0,14.0,94,0.00,,,0.00,weatherlink.com 1.10,2013-05-03 05:18:00,
2013-05-03 00:33:00,37.2,36.0,30.20,NNE,18,3.0,11.0,94,0.00,,,0.00,weatherlink.com 1.10,2013-05-03 05:33:00,
2013-05-03 00:48:00,36.7,36.0,30.19,North,6,3.0,12.0,96,0.02,,,0.02,weatherlink.com 1.10,2013-05-03 05:48:00,
2013-05-03 01:03:00,36.4,36.0,30.17,North,360,6.0,11.0,97,0.04,,,0.04,weatherlink.com 1.10,2013-05-03 06:03:00,
2013-05-03 01:18:00,36.2,36.0,30.17,NNW,331,6.0,11.0,98,0.04,,,0.04,weatherlink.com 1.10,2013-05-03 06:18:00,
2013-05-03 01:33:00,36.1,36.0,30.16,WNW,293,7.0,12.0,98,0.04,,,0.04,weatherlink.com 1.10,2013-05-03 06:33:00,
2013-05-03 01:48:00,35.9,35.0,30.15,NNW,331,2.0,13.0,98,0.02,,,0.05,weatherlink.com 1.10,2013-05-03 06:48:00,
2013-05-03 02:03:00,35.8,35.0,30.14,WNW,292,2.0,10.0,98,0.02,,,0.06,weatherlink.com 1.10,2013-05-03 07:03:00,
2013-05-03 02:18:00,35.7,35.0,30.14,NNE,13,11.0,12.0,98,0.04,,,0.08,weatherlink.com 1.10,2013-05-03 07:18:00,
2013-05-03 02:33:00,35.7,35.0,30.14,NNW,333,2.0,9.0,98,0.06,,,0.10,weatherlink.com 1.10,2013-05-03 07:33:00,
2013-05-03 02:48:00,35.6,35.0,30.14,NNE,22,4.0,9.0,98,0.07,,,0.12,weatherlink.com 1.10,2013-05-03 07:48:00,
2013-05-03 03:03:00,35.5,35.0,30.13,NNE,26,5.0,9.0,98,0.08,,,0.14,weatherlink.com 1.10,2013-05-03 08:03:00,
2013-05-03 03:18:00,35.5,35.0,30.13,NE,44,6.0,10.0,98,0.08,,,0.16,weatherlink.com 1.10,2013-05-03 08:18:00,
2013-05-03 03:33:00,35.4,35.0,30.13,NNE,28,3.0,11.0,98,0.07,,,0.17,weatherlink.com 1.10,2013-05-03 08:33:00,
2013-05-03 03:48:00,35.4,35.0,30.12,NW,318,8.0,12.0,98,0.06,,,0.18,weatherlink.com 1.10,2013-05-03 08:48:00,
2013-05-03 04:03:00,35.3,35.0,30.12,NE,48,2.0,9.0,98,0.06,,,0.20,weatherlink.com 1.10,2013-05-03 09:03:00,
2013-05-03 04:18:00,35.3,35.0,30.12,North,3,7.0,11.0,98,0.04,,,0.20,weatherlink.com 1.10,2013-05-03 09:18:00,
2013-05-03 04:33:00,35.3,35.0,30.12,NE,43,4.0,10.0,98,0.04,,,0.21,weatherlink.com 1.10,2013-05-03 09:33:00,
2013-05-03 04:48:00,35.3,35.0,30.11,NNE,13,3.0,13.0,98,0.03,,,0.21,weatherlink.com 1.10,2013-05-03 09:48:00,
2013-05-03 05:03:00,35.4,35.0,30.10,NE,51,6.0,11.0,98,0.02,,,0.22,weatherlink.com 1.10,2013-05-03 10:03:00,
2013-05-03 05:18:00,35.4,35.0,30.10,NE,44,7.0,10.0,98,0.02,,,0.22,weatherlink.com 1.10,2013-05-03 10:18:00,
2013-05-03 05:33:00,35.4,35.0,30.10,NNE,19,7.0,8.0,98,0.02,,,0.23,weatherlink.com 1.10,2013-05-03 10:33:00,
2013-05-03 05:48:00,35.4,35.0,30.09,NNE,27,5.0,12.0,98,0.03,,,0.24,weatherlink.com 1.10,2013-05-03 10:48:00,
2013-05-03 06:03:00,35.5,35.0,30.09,NE,56,2.0,12.0,97,0.03,,,0.25,weatherlink.com 1.10,2013-05-03 11:03:00,
2013-05-03 06:19:00,35.5,35.0,30.09,NNE,33,3.0,12.0,97,0.03,,,0.25,weatherlink.com 1.10,2013-05-03 11:19:00,
2013-05-03 06:34:00,35.6,35.0,30.09,NNE,13,7.0,13.0,97,0.02,,,0.25,weatherlink.com 1.10,2013-05-03 11:34:00,
2013-05-03 06:49:00,35.6,35.0,30.09,NNW,348,4.0,8.0,97,0.01,,,0.25,weatherlink.com 1.10,2013-05-03 11:49:00,
2013-05-03 07:04:00,35.8,35.0,30.08,NNE,32,4.0,12.0,97,0.01,,,0.26,weatherlink.com 1.10,2013-05-03 12:04:00,
2013-05-03 07:19:00,35.9,35.0,30.08,North,6,3.0,11.0,97,0.01,,,0.26,weatherlink.com 1.10,2013-05-03 12:19:00,
2013-05-03 07:34:00,36.0,35.0,30.08,NNE,27,5.0,12.0,97,0.01,,,0.26,weatherlink.com 1.10,2013-05-03 12:34:00,
2013-05-03 07:49:00,36.1,36.0,30.07,NE,37,4.0,10.0,98,0.02,,,0.27,weatherlink.com 1.10,2013-05-03 12:49:00,
2013-05-03 08:04:00,36.2,36.0,30.07,North,8,4.0,9.0,98,0.01,,,0.27,weatherlink.com 1.10,2013-05-03 13:04:00,
2013-05-03 08:19:00,36.3,36.0,30.07,North,1,4.0,8.0,97,0.03,,,0.29,weatherlink.com 1.10,2013-05-03 13:19:00,
2013-05-03 08:34:00,36.3,36.0,30.07,NE,34,4.0,9.0,98,0.05,,,0.31,weatherlink.com 1.10,2013-05-03 13:34:00,
2013-05-03 08:49:00,36.3,36.0,30.07,NNE,22,4.0,8.0,98,0.06,,,0.33,weatherlink.com 1.10,2013-05-03 13:49:00,
2013-05-03 09:04:00,36.4,36.0,30.07,NNE,27,3.0,7.0,98,0.07,,,0.34,weatherlink.com 1.10,2013-05-03 14:04:00,
2013-05-03 09:19:00,36.7,36.0,30.07,North,355,3.0,10.0,98,0.07,,,0.36,weatherlink.com 1.10,2013-05-03 14:19:00,
2013-05-03 09:34:00,36.8,36.0,30.06,NNW,342,3.0,9.0,98,0.07,,,0.38,weatherlink.com 1.10,2013-05-03 14:34:00,
2013-05-03 09:49:00,36.9,36.0,30.06,NE,46,6.0,8.0,98,0.07,,,0.40,weatherlink.com 1.10,2013-05-03 14:49:00,
2013-05-03 10:04:00,37.0,37.0,30.05,NNE,28,6.0,9.0,98,0.07,,,0.41,weatherlink.com 1.10,2013-05-03 15:04:00,
2013-05-03 10:19:00,37.2,37.0,30.04,NNE,25,5.0,12.0,98,0.07,,,0.43,weatherlink.com 1.10,2013-05-03 15:19:00,
2013-05-03 10:35:00,37.3,37.0,30.04,NE,44,8.0,13.0,98,0.08,,,0.46,weatherlink.com 1.10,2013-05-03 15:35:00,
2013-05-03 10:54:00,37.7,37.0,30.02,NE,39,6.0,15.0,98,0.09,,,0.48,weatherlink.com 1.10,2013-05-03 15:54:00,
2013-05-03 11:05:00,38.1,38.0,30.02,NNE,24,10.0,13.0,98,0.09,,,0.49,weatherlink.com 1.10,2013-05-03 16:05:00,
2013-05-03 11:20:00,38.6,38.0,30.02,NE,44,4.0,11.0,98,0.07,,,0.49,weatherlink.com 1.10,2013-05-03 16:20:00,
2013-05-03 11:35:00,39.1,39.0,30.02,North,10,2.0,11.0,98,0.04,,,0.49,weatherlink.com 1.10,2013-05-03 16:35:00,
2013-05-03 11:50:00,39.4,39.0,30.00,NE,44,4.0,11.0,98,0.07,,,0.54,weatherlink.com 1.10,2013-05-03 16:50:00,
2013-05-03 12:05:00,39.4,39.0,30.00,NE,41,4.0,15.0,98,0.11,,,0.60,weatherlink.com 1.10,2013-05-03 17:05:00,
2013-05-03 12:20:00,39.7,39.0,30.02,NE,53,2.0,6.0,98,0.15,,,0.64,weatherlink.com 1.10,2013-05-03 17:20:00,
2013-05-03 12:35:00,39.9,39.0,30.01,NNE,27,6.0,11.0,98,0.20,,,0.70,weatherlink.com 1.10,2013-05-03 17:35:00,
2013-05-03 12:50:00,40.2,40.0,30.01,NNE,27,5.0,8.0,99,0.18,,,0.73,weatherlink.com 1.10,2013-05-03 17:50:00,
2013-05-03 13:05:00,40.6,40.0,30.01,NNE,32,2.0,8.0,99,0.15,,,0.75,weatherlink.com 1.10,2013-05-03 18:05:00,
2013-05-03 13:20:00,41.0,41.0,30.00,NNE,23,2.0,8.0,99,0.14,,,0.78,weatherlink.com 1.10,2013-05-03 18:20:00,
2013-05-03 13:35:00,41.3,41.0,30.00,NNE,30,3.0,10.0,99,0.10,,,0.80,weatherlink.com 1.10,2013-05-03 18:35:00,
2013-05-03 13:50:00,41.5,41.0,30.00,NE,39,1.0,6.0,99,0.08,,,0.81,weatherlink.com 1.10,2013-05-03 18:50:00,
2013-05-03 14:05:00,41.8,42.0,29.99,North,5,4.0,8.0,99,0.08,,,0.83,weatherlink.com 1.10,2013-05-03 19:05:00,
2013-05-03 14:20:00,42.5,42.0,29.99,NE,53,6.0,9.0,99,0.07,,,0.85,weatherlink.com 1.10,2013-05-03 19:20:00,
2013-05-03 14:35:00,42.5,42.0,29.98,NNE,12,5.0,10.0,98,0.06,,,0.86,weatherlink.com 1.10,2013-05-03 19:35:00,
2013-05-03 14:50:00,42.9,42.0,29.98,NNW,331,3.0,8.0,98,0.07,,,0.88,weatherlink.com 1.10,2013-05-03 19:50:00,
2013-05-03 15:09:00,42.9,42.0,29.98,NNE,30,3.0,6.0,98,0.05,,,0.88,weatherlink.com 1.10,2013-05-03 20:09:00,
2013-05-03 15:20:00,43.4,43.0,29.98,North,11,4.0,6.0,99,0.11,,,0.95,weatherlink.com 1.10,2013-05-03 20:20:00,
2013-05-03 15:35:00,43.4,43.0,29.97,NE,39,9.0,9.0,99,0.16,,,1.01,weatherlink.com 1.10,2013-05-03 20:35:00,
2013-05-03 15:51:00,43.7,44.0,29.97,NE,39,3.0,7.0,99,0.18,,,1.05,weatherlink.com 1.10,2013-05-03 20:51:00,
2013-05-03 16:06:00,43.9,44.0,29.98,NNE,30,2.0,6.0,99,0.20,,,1.08,weatherlink.com 1.10,2013-05-03 21:06:00,
2013-05-03 16:21:00,44.1,44.0,29.96,NE,41,8.0,11.0,99,0.15,,,1.10,weatherlink.com 1.10,2013-05-03 21:21:00,
2013-05-03 16:36:00,44.4,44.0,29.95,NE,56,5.0,12.0,99,0.08,,,1.10,weatherlink.com 1.10,2013-05-03 21:36:00,
2013-05-03 16:51:00,44.5,44.0,29.95,NE,55,4.0,14.0,98,0.05,,,1.10,weatherlink.com 1.10,2013-05-03 21:51:00,
2013-05-03 17:06:00,44.5,44.0,29.94,NE,54,3.0,11.0,98,0.03,,,1.11,weatherlink.com 1.10,2013-05-03 22:06:00,
2013-05-03 17:21:00,44.6,44.0,29.95,North,10,4.0,11.0,99,0.02,,,1.12,weatherlink.com 1.10,2013-05-03 22:21:00,
2013-05-03 17:30:00,44.7,44.4,29.95,NNE,22,5.0,14.0,99,0.05,,---,1.13,VWS V14.01,2013-05-03 22:30:00,
2013-05-03 17:36:00,44.6,44.0,29.94,NNE,27,8.0,14.0,99,0.03,,,1.13,weatherlink.com 1.10,2013-05-03 22:36:00,
2013-05-03 17:51:00,44.8,45.0,29.95,NNW,347,5.0,10.0,99,0.04,,,1.14,weatherlink.com 1.10,2013-05-03 22:51:00,
2013-05-03 18:06:00,45.1,45.0,29.95,NNE,23,6.0,11.0,99,0.07,,,1.18,weatherlink.com 1.10,2013-05-03 23:06:00,
2013-05-03 18:21:00,45.1,45.0,29.95,North,1,1.0,6.0,99,0.11,,,1.23,weatherlink.com 1.10,2013-05-03 23:21:00,
2013-05-03 18:36:00,45.1,45.0,29.96,NNE,20,4.0,4.0,99,0.13,,,1.26,weatherlink.com 1.10,2013-05-03 23:36:00,
2013-05-03 18:51:00,45.2,45.0,29.95,NNE,27,2.0,7.0,100,0.15,,,1.30,weatherlink.com 1.10,2013-05-03 23:51:00,
2013-05-03 19:06:00,45.1,45.0,29.94,North,358,6.0,8.0,100,0.15,,,1.33,weatherlink.com 1.10,2013-05-04 00:06:00,
2013-05-03 19:21:00,45.3,45.0,29.94,NNE,16,3.0,8.0,100,0.10,,,1.33,weatherlink.com 1.10,2013-05-04 00:21:00,
2013-05-03 19:36:00,45.5,46.0,29.94,NNE,30,1.0,10.0,100,0.07,,,1.33,weatherlink.com 1.10,2013-05-04 00:36:00,
2013-05-03 19:51:00,45.5,46.0,29.94,ENE,57,6.0,9.0,100,0.03,,,1.33,weatherlink.com 1.10,2013-05-04 00:51:00,
2013-05-03 20:06:00,45.7,46.0,29.94,NNE,32,6.0,7.0,100,0.00,,,1.33,weatherlink.com 1.10,2013-05-04 01:06:00,
2013-05-03 20:21:00,45.8,46.0,29.94,North,355,1.0,9.0,100,0.01,,,1.34,weatherlink.com 1.10,2013-05-04 01:21:00,
2013-05-03 20:36:00,46.0,46.0,29.94,NE,39,5.0,9.0,100,0.01,,,1.34,weatherlink.com 1.10,2013-05-04 01:36:00,
2013-05-03 20:51:00,46.4,46.0,29.94,NE,48,5.0,12.0,100,0.01,,,1.34,weatherlink.com 1.10,2013-05-04 01:51:00,
2013-05-03 21:06:00,46.6,47.0,29.94,NE,49,4.0,12.0,100,0.01,,,1.34,weatherlink.com 1.10,2013-05-04 02:06:00,
2013-05-03 21:21:00,46.9,47.0,29.94,NE,37,6.0,9.0,100,0.00,,,1.34,weatherlink.com 1.10,2013-05-04 02:21:00,
2013-05-03 21:36:00,47.3,47.0,29.94,NE,56,5.0,12.0,100,0.00,,,1.34,weatherlink.com 1.10,2013-05-04 02:36:00,
2013-05-03 21:51:00,47.5,48.0,29.94,East,82,6.0,14.0,100,0.00,,,1.34,weatherlink.com 1.10,2013-05-04 02:51:00,
2013-05-03 22:06:00,47.7,48.0,29.94,NNE,20,6.0,13.0,100,0.00,,,1.34,weatherlink.com 1.10,2013-05-04 03:06:00,
2013-05-03 22:21:00,47.9,48.0,29.94,ENE,72,3.0,12.0,100,0.00,,,1.34,weatherlink.com 1.10,2013-05-04 03:21:00,
2013-05-03 22:36:00,48.1,48.0,29.94,ENE,63,5.0,9.0,100,0.00,,,1.34,weatherlink.com 1.10,2013-05-04 03:36:00,
2013-05-03 22:51:00,48.3,48.0,29.94,East,94,3.0,13.0,100,0.00,,,1.34,weatherlink.com 1.10,2013-05-04 03:51:00,
2013-05-03 23:06:00,48.4,48.0,29.93,NNE,22,4.0,11.0,100,0.00,,,1.34,weatherlink.com 1.10,2013-05-04 04:06:00,
2013-05-03 23:21:00,48.6,49.0,29.92,NNE,22,4.0,10.0,100,0.00,,,1.34,weatherlink.com 1.10,2013-05-04 04:21:00,
2013-05-03 23:36:00,49.0,49.0,29.92,ENE,59,10.0,14.0,100,0.00,,,1.34,weatherlink.com 1.10,2013-05-04 04:36:00,
2013-05-03 23:51:00,49.3,49.0,29.92,ENE,65,11.0,14.0,100,0.00,,,1.34,weatherlink.com 1.10,2013-05-04 04:51:00,